createdAt,value
2022-08-26T00:00:13.864Z,0.00
2022-08-26T00:01:14.209Z,0.00
2022-08-26T00:02:14.460Z,0.00
2022-08-26T00:03:14.706Z,0.00
2022-08-26T00:04:15.058Z,0.00
2022-08-26T00:05:15.401Z,0.00
2022-08-26T00:06:15.712Z,0.00
2022-08-26T00:07:16.930Z,0.00
2022-08-26T00:08:16.231Z,0.00
2022-08-26T00:09:16.791Z,0.00
2022-08-26T00:10:16.788Z,0.00
2022-08-26T00:11:26.355Z,1.00
2022-08-26T00:12:18.531Z,0.00
2022-08-26T00:13:19.605Z,0.00
2022-08-26T00:14:18.112Z,0.00
2022-08-26T00:15:18.408Z,0.00
2022-08-26T00:16:18.731Z,0.00
2022-08-26T00:17:19.031Z,0.00
2022-08-26T00:18:22.218Z,0.00
2022-08-26T00:19:19.525Z,0.00
2022-08-26T00:20:19.800Z,0.00
2022-08-26T00:21:20.100Z,0.00
2022-08-26T00:22:20.371Z,0.00
2022-08-26T00:23:20.709Z,0.00
2022-08-26T00:24:21.055Z,0.00
2022-08-26T00:26:36.732Z,0.00
2022-08-26T00:27:36.921Z,1.00
2022-08-26T00:28:37.204Z,0.00
2022-08-26T00:29:37.789Z,1.00
2022-08-26T00:30:37.871Z,0.00
2022-08-26T00:31:38.114Z,0.00
2022-08-26T00:32:38.297Z,0.00
2022-08-26T00:33:38.597Z,0.00
2022-08-26T00:34:38.830Z,0.00
2022-08-26T00:35:39.228Z,0.00
2022-08-26T00:36:40.711Z,0.00
2022-08-26T00:37:39.731Z,0.00
2022-08-26T00:38:40.038Z,0.00
2022-08-26T00:39:40.264Z,0.00
2022-08-26T00:40:40.454Z,1.00
2022-08-26T00:41:40.824Z,0.00
2022-08-26T00:42:41.096Z,0.00
2022-08-26T00:43:47.299Z,0.00
2022-08-26T00:44:42.625Z,0.00
2022-08-26T00:45:41.913Z,0.00
2022-08-26T00:46:46.552Z,0.00
2022-08-26T00:47:43.565Z,0.00
2022-08-26T00:48:42.913Z,0.00
2022-08-26T00:49:43.222Z,0.00
2022-08-26T00:50:43.531Z,0.00
2022-08-26T00:51:43.834Z,0.00
2022-08-26T00:52:44.106Z,0.00
2022-08-26T00:53:44.350Z,0.00
2022-08-26T00:54:44.689Z,0.00
2022-08-26T00:55:44.999Z,0.00
2022-08-26T00:56:45.252Z,0.00
2022-08-26T00:57:45.611Z,0.00
2022-08-26T00:58:45.787Z,0.00
2022-08-26T00:59:46.097Z,0.00
2022-08-26T01:00:46.403Z,0.00
2022-08-26T01:01:46.725Z,0.00
2022-08-26T01:02:47.451Z,0.00
2022-08-26T01:03:47.290Z,0.00
2022-08-26T01:04:47.573Z,0.00
2022-08-26T01:05:47.842Z,0.00
2022-08-26T01:06:48.114Z,1.00
2022-08-26T01:07:48.330Z,0.00
2022-08-26T01:08:48.735Z,0.00
2022-08-26T01:09:48.991Z,0.00
2022-08-26T01:10:49.214Z,0.00
2022-08-26T01:11:49.510Z,0.00
2022-08-26T01:12:49.775Z,0.00
2022-08-26T01:13:50.008Z,0.00
2022-08-26T01:14:50.342Z,0.00
2022-08-26T01:15:50.651Z,0.00
2022-08-26T01:16:50.907Z,0.00
2022-08-26T01:17:51.207Z,0.00
2022-08-26T01:18:51.508Z,0.00
2022-08-26T01:19:51.895Z,0.00
2022-08-26T01:20:52.099Z,0.00
2022-08-26T01:21:53.327Z,0.00
2022-08-26T01:22:52.606Z,0.00
2022-08-26T01:23:57.404Z,1.00
2022-08-26T01:24:54.250Z,0.00
2022-08-26T01:25:53.540Z,0.00
2022-08-26T01:26:53.806Z,0.00
2022-08-26T01:27:54.123Z,0.00
2022-08-26T01:28:54.390Z,0.00
2022-08-26T01:29:54.613Z,1.00
2022-08-26T01:30:54.979Z,1.00
2022-08-26T01:31:55.402Z,0.00
2022-08-26T01:32:55.577Z,0.00
2022-08-26T01:33:56.763Z,0.00
2022-08-26T01:34:56.241Z,0.00
2022-08-26T01:35:56.391Z,0.00
2022-08-26T01:36:56.623Z,0.00
2022-08-26T01:37:56.870Z,0.00
2022-08-26T01:38:57.175Z,0.00
2022-08-26T01:39:57.671Z,0.00
2022-08-26T01:40:57.745Z,0.00
2022-08-26T01:41:57.915Z,1.00
2022-08-26T01:42:59.300Z,0.00
2022-08-26T01:43:58.632Z,0.00
2022-08-26T01:44:58.934Z,0.00
2022-08-26T01:45:59.177Z,1.00
2022-08-26T01:46:59.492Z,0.00
2022-08-26T01:47:59.800Z,0.00
2022-08-26T01:49:00.051Z,0.00
2022-08-26T01:50:00.272Z,1.00
2022-08-26T01:51:00.679Z,0.00
2022-08-26T01:52:00.947Z,0.00
2022-08-26T01:53:01.140Z,0.00
2022-08-26T01:54:01.526Z,0.00
2022-08-26T01:55:01.777Z,0.00
2022-08-26T01:56:02.111Z,0.00
2022-08-26T01:57:02.364Z,0.00
2022-08-26T01:58:02.634Z,0.00
2022-08-26T01:59:02.909Z,0.00
2022-08-26T02:00:03.165Z,0.00
2022-08-26T02:01:03.426Z,0.00
2022-08-26T02:02:03.792Z,0.00
2022-08-26T02:03:04.018Z,0.00
2022-08-26T02:04:04.344Z,0.00
2022-08-26T02:05:04.652Z,0.00
2022-08-26T02:06:04.983Z,0.00
2022-08-26T02:07:06.175Z,0.00
2022-08-26T02:08:05.610Z,0.00
2022-08-26T02:09:05.976Z,0.00
2022-08-26T02:10:06.248Z,0.00
2022-08-26T02:11:06.458Z,0.00
2022-08-26T02:12:06.780Z,0.00
2022-08-26T02:13:07.064Z,0.00
2022-08-26T02:14:07.294Z,0.00
2022-08-26T02:15:07.520Z,1.00
2022-08-26T02:16:07.946Z,0.00
2022-08-26T02:17:08.168Z,0.00
2022-08-26T02:18:08.462Z,0.00
2022-08-26T02:19:09.776Z,0.00
2022-08-26T02:20:13.233Z,0.00
2022-08-26T02:21:10.333Z,0.00
2022-08-26T02:22:09.582Z,0.00
2022-08-26T02:23:09.811Z,0.00
2022-08-26T02:24:10.152Z,0.00
2022-08-26T02:25:10.483Z,0.00
2022-08-26T02:26:10.725Z,0.00
2022-08-26T02:27:11.014Z,0.00
2022-08-26T02:28:11.362Z,0.00
2022-08-26T02:29:11.484Z,0.00
2022-08-26T02:30:11.733Z,0.00
2022-08-26T02:31:12.079Z,0.00
2022-08-26T02:32:12.255Z,0.00
2022-08-26T02:33:13.466Z,1.00
2022-08-26T02:34:12.802Z,0.00
2022-08-26T02:35:13.122Z,0.00
2022-08-26T02:36:14.459Z,0.00
2022-08-26T02:37:13.659Z,0.00
2022-08-26T02:38:13.919Z,1.00
2022-08-26T02:39:17.998Z,0.00
2022-08-26T02:40:15.545Z,0.00
2022-08-26T02:41:14.900Z,0.00
2022-08-26T02:42:15.200Z,0.00
2022-08-26T02:43:15.525Z,0.00
2022-08-26T02:44:15.858Z,0.00
2022-08-26T02:45:16.725Z,0.00
2022-08-26T02:46:26.771Z,0.00
2022-08-26T02:47:17.781Z,0.00
2022-08-26T02:48:16.956Z,0.00
2022-08-26T02:49:17.343Z,0.00
2022-08-26T02:50:17.462Z,0.00
2022-08-26T02:51:17.655Z,1.00
2022-08-26T02:52:18.011Z,0.00
2022-08-26T02:53:22.008Z,0.00
2022-08-26T02:54:19.547Z,0.00
2022-08-26T02:55:18.898Z,0.00
2022-08-26T02:56:19.216Z,0.00
2022-08-26T02:57:19.462Z,0.00
2022-08-26T02:58:19.772Z,0.00
2022-08-26T02:59:20.090Z,0.00
2022-08-26T03:00:20.546Z,0.00
2022-08-26T03:01:20.756Z,0.00
2022-08-26T03:02:21.012Z,0.00
2022-08-26T03:03:22.564Z,0.00
2022-08-26T03:04:21.571Z,0.00
2022-08-26T03:05:21.867Z,0.00
2022-08-26T03:06:22.175Z,0.00
2022-08-26T03:07:22.387Z,0.00
2022-08-26T03:08:22.700Z,0.00
2022-08-26T03:09:23.420Z,0.00
2022-08-26T03:10:23.383Z,0.00
2022-08-26T03:11:23.612Z,0.00
2022-08-26T03:12:23.865Z,0.00
2022-08-26T03:13:24.214Z,0.00
2022-08-26T03:14:24.503Z,0.00
2022-08-26T03:15:24.696Z,1.00
2022-08-26T03:16:25.142Z,0.00
2022-08-26T03:17:26.835Z,0.00
2022-08-26T03:18:25.841Z,0.00
2022-08-26T03:19:26.307Z,0.00
2022-08-26T03:20:26.287Z,0.00
2022-08-26T03:21:26.549Z,0.00
2022-08-26T03:22:27.043Z,1.00
2022-08-26T03:23:27.115Z,0.00
2022-08-26T03:24:27.457Z,0.00
2022-08-26T03:25:27.749Z,0.00
2022-08-26T03:26:27.996Z,0.00
2022-08-26T03:27:28.263Z,0.00
2022-08-26T03:28:28.575Z,0.00
2022-08-26T03:29:28.915Z,0.00
2022-08-26T03:30:29.158Z,0.00
2022-08-26T03:31:29.442Z,0.00
2022-08-26T03:32:29.699Z,0.00
2022-08-26T03:33:29.977Z,0.00
2022-08-26T03:34:30.259Z,0.00
2022-08-26T03:35:30.537Z,1.00
2022-08-26T03:36:30.790Z,0.00
2022-08-26T03:37:31.068Z,0.00
2022-08-26T03:38:31.401Z,0.00
2022-08-26T03:39:32.679Z,1.00
2022-08-26T03:40:31.965Z,0.00
2022-08-26T03:41:32.248Z,0.00
2022-08-26T03:42:32.465Z,0.00
2022-08-26T03:43:32.690Z,1.00
2022-08-26T03:44:32.993Z,0.00
2022-08-26T03:45:33.348Z,0.00
2022-08-26T03:46:33.737Z,0.00
2022-08-26T03:47:33.887Z,0.00
2022-08-26T03:48:34.283Z,0.00
2022-08-26T03:49:34.522Z,0.00
2022-08-26T03:50:35.825Z,0.00
2022-08-26T03:51:35.111Z,0.00
2022-08-26T03:52:35.346Z,0.00
2022-08-26T03:53:35.686Z,0.00
2022-08-26T03:54:35.935Z,0.00
2022-08-26T03:55:36.201Z,0.00
2022-08-26T03:56:36.448Z,0.00
2022-08-26T03:57:36.742Z,0.00
2022-08-26T03:58:37.103Z,0.00
2022-08-26T03:59:37.327Z,0.00
2022-08-26T04:00:37.656Z,0.00
2022-08-26T04:01:37.924Z,1.00
2022-08-26T04:02:38.147Z,1.00
2022-08-26T04:03:38.411Z,1.00
2022-08-26T04:04:38.637Z,1.00
2022-08-26T04:05:38.919Z,0.00
2022-08-26T04:06:39.246Z,0.00
2022-08-26T04:07:39.581Z,0.00
2022-08-26T04:08:39.813Z,1.00
2022-08-26T04:09:40.074Z,1.00
2022-08-26T04:10:40.437Z,1.00
2022-08-26T04:11:40.810Z,0.00
2022-08-26T04:12:41.038Z,1.00
2022-08-26T04:13:41.319Z,2.00
2022-08-26T04:14:41.528Z,3.00
2022-08-26T04:15:41.818Z,6.00
2022-08-26T04:16:42.078Z,5.00
2022-08-26T04:17:42.385Z,5.00
2022-08-26T04:18:46.909Z,3.00
2022-08-26T04:19:42.862Z,4.00
2022-08-26T04:20:43.092Z,3.00
2022-08-26T04:21:43.358Z,10.00
2022-08-26T04:22:43.579Z,7.00
2022-08-26T04:23:47.817Z,11.00
2022-08-26T04:24:44.238Z,14.00
2022-08-26T04:25:44.450Z,12.00
2022-08-26T04:26:44.788Z,12.00
2022-08-26T04:27:45.080Z,16.00
2022-08-26T04:28:45.326Z,19.00
2022-08-26T04:29:45.580Z,25.00
2022-08-26T04:30:45.881Z,19.00
2022-08-26T04:31:46.113Z,34.00
2022-08-26T04:32:46.401Z,34.00
2022-08-26T04:33:46.645Z,40.00
2022-08-26T04:34:46.873Z,41.00
2022-08-26T04:35:47.112Z,44.00
2022-08-26T04:36:47.425Z,44.00
2022-08-26T04:37:48.150Z,51.00
2022-08-26T04:38:47.986Z,54.00
2022-08-26T04:39:48.245Z,58.00
2022-08-26T04:40:48.466Z,65.00
2022-08-26T04:41:48.815Z,68.00
2022-08-26T04:42:49.177Z,71.00
2022-08-26T04:43:49.388Z,81.00
2022-08-26T04:44:49.617Z,78.00
2022-08-26T04:45:49.859Z,76.00
2022-08-26T04:46:50.154Z,83.00
2022-08-26T04:47:50.427Z,91.00
2022-08-26T04:48:50.666Z,92.00
2022-08-26T04:49:50.895Z,93.00
2022-08-26T04:50:51.251Z,101.00
2022-08-26T04:51:51.457Z,104.00
2022-08-26T04:52:51.918Z,104.00
2022-08-26T04:53:52.158Z,114.00
2022-08-26T04:54:52.363Z,111.00
2022-08-26T04:55:55.228Z,120.00
2022-08-26T04:56:52.931Z,122.00
2022-08-26T04:57:53.325Z,133.00
2022-08-26T04:58:53.580Z,137.00
2022-08-26T04:59:53.913Z,142.00
2022-08-26T05:00:54.116Z,151.00
2022-08-26T05:01:54.399Z,159.00
2022-08-26T05:02:54.647Z,172.00
2022-08-26T05:03:54.929Z,178.00
2022-08-26T05:04:55.164Z,178.00
2022-08-26T05:05:55.380Z,178.00
2022-08-26T05:07:02.345Z,194.00
2022-08-26T05:07:57.005Z,201.00
2022-08-26T05:08:56.357Z,210.00
2022-08-26T05:09:56.526Z,210.00
2022-08-26T05:10:56.893Z,214.00
2022-08-26T05:11:57.134Z,219.00
2022-08-26T05:12:57.373Z,222.00
2022-08-26T05:14:01.641Z,228.00
2022-08-26T05:14:57.997Z,234.00
2022-08-26T05:16:00.554Z,244.00
2022-08-26T05:16:58.551Z,246.00
2022-08-26T05:17:58.721Z,252.00
2022-08-26T05:18:58.962Z,251.00
2022-08-26T05:19:59.191Z,251.00
2022-08-26T05:20:59.575Z,248.00
2022-08-26T05:21:59.959Z,247.00
2022-08-26T05:23:00.017Z,251.00
2022-08-26T05:24:00.263Z,260.00
2022-08-26T05:25:00.493Z,267.00
2022-08-26T05:26:00.731Z,283.00
2022-08-26T05:27:01.105Z,296.00
2022-08-26T05:28:01.708Z,300.00
2022-08-26T05:29:01.555Z,324.00
2022-08-26T05:30:01.812Z,321.00
2022-08-26T05:31:02.134Z,346.00
2022-08-26T05:32:02.786Z,359.00
2022-08-26T05:33:02.794Z,364.00
2022-08-26T05:34:03.467Z,366.00
2022-08-26T05:35:03.250Z,376.00
2022-08-26T05:36:04.496Z,391.00
2022-08-26T05:37:03.831Z,401.00
2022-08-26T05:38:04.042Z,413.00
2022-08-26T05:39:04.381Z,423.00
2022-08-26T05:41:04.033Z,436.00
2022-08-26T05:42:04.008Z,433.00
2022-08-26T05:43:04.287Z,430.00
2022-08-26T05:44:04.704Z,444.00
2022-08-26T05:45:04.814Z,459.00
2022-08-26T05:46:05.603Z,461.00
2022-08-26T05:47:05.333Z,468.00
2022-08-26T05:48:05.585Z,474.00
2022-08-26T05:49:05.901Z,478.00
2022-08-26T05:50:06.129Z,486.00
2022-08-26T05:51:06.503Z,493.00
2022-08-26T05:52:06.647Z,496.00
2022-08-26T05:53:07.587Z,499.00
2022-08-26T05:54:07.249Z,504.00
2022-08-26T05:55:07.464Z,513.00
2022-08-26T05:56:07.782Z,529.00
2022-08-26T05:57:08.769Z,538.00
2022-08-26T05:58:10.360Z,551.00
2022-08-26T05:59:14.196Z,567.00
2022-08-26T06:00:10.011Z,578.00
2022-08-26T06:01:09.282Z,577.00
2022-08-26T06:02:09.527Z,593.00
2022-08-26T06:03:29.345Z,606.00
2022-08-26T06:04:10.072Z,611.00
2022-08-26T06:05:10.378Z,630.00
2022-08-26T06:06:10.676Z,657.00
2022-08-26T06:07:11.640Z,663.00
2022-08-26T06:08:11.168Z,673.00
2022-08-26T06:09:11.528Z,682.00
2022-08-26T06:10:32.193Z,709.00
2022-08-26T06:11:18.416Z,723.00
2022-08-26T06:12:13.536Z,744.00
2022-08-26T06:13:12.536Z,769.00
2022-08-26T06:14:12.742Z,776.00
2022-08-26T06:15:13.069Z,788.00
2022-08-26T06:16:13.305Z,798.00
2022-08-26T06:17:13.578Z,725.00
2022-08-26T06:18:13.768Z,724.00
2022-08-26T06:19:14.011Z,742.00
2022-08-26T06:20:14.290Z,749.00
2022-08-26T06:21:14.534Z,750.00
2022-08-26T06:22:16.780Z,759.00
2022-08-26T06:23:15.284Z,775.00
2022-08-26T06:24:15.455Z,758.00
2022-08-26T06:25:15.696Z,760.00
2022-08-26T06:26:15.943Z,782.00
2022-08-26T06:27:16.254Z,766.00
2022-08-26T06:28:16.461Z,787.00
2022-08-26T06:29:24.041Z,800.00
2022-08-26T06:30:17.980Z,811.00
2022-08-26T06:31:17.260Z,792.00
2022-08-26T06:32:17.488Z,847.00
2022-08-26T06:33:17.798Z,923.00
2022-08-26T06:34:18.003Z,907.00
2022-08-26T06:35:18.230Z,895.00
2022-08-26T06:36:18.763Z,882.00
2022-08-26T06:37:18.824Z,860.00
2022-08-26T06:38:19.138Z,874.00
2022-08-26T06:39:19.440Z,914.00
2022-08-26T06:40:19.800Z,947.00
2022-08-26T06:41:20.035Z,977.00
2022-08-26T06:42:20.276Z,1026.00
2022-08-26T06:43:20.510Z,1022.00
2022-08-26T06:44:20.903Z,996.00
2022-08-26T06:45:21.113Z,1032.00
2022-08-26T06:46:21.337Z,1037.00
2022-08-26T06:47:21.639Z,1060.00
2022-08-26T06:48:21.923Z,1094.00
2022-08-26T06:49:26.783Z,1104.00
2022-08-26T06:50:23.443Z,1123.00
2022-08-26T06:51:23.690Z,1142.00
2022-08-26T06:52:24.422Z,1146.00
2022-08-26T06:53:23.219Z,1145.00
2022-08-26T06:54:23.484Z,1177.00
2022-08-26T06:55:26.947Z,1180.00
2022-08-26T06:56:23.985Z,1200.00
2022-08-26T06:57:24.302Z,1209.00
2022-08-26T06:58:24.547Z,1199.00
2022-08-26T06:59:24.812Z,1169.00
2022-08-26T07:00:25.095Z,1154.00
2022-08-26T07:01:25.415Z,1168.00
2022-08-26T07:02:28.445Z,1208.00
2022-08-26T07:03:25.941Z,1240.00
2022-08-26T07:04:27.835Z,1310.00
2022-08-26T07:05:26.533Z,1328.00
2022-08-26T07:06:26.755Z,1341.00
2022-08-26T07:07:27.049Z,1292.00
2022-08-26T07:08:27.262Z,1391.00
2022-08-26T07:09:27.497Z,1361.00
2022-08-26T07:10:27.811Z,1384.00
2022-08-26T07:11:28.102Z,1415.00
2022-08-26T07:12:28.410Z,1430.00
2022-08-26T07:13:30.493Z,1465.00
2022-08-26T07:14:28.897Z,1420.00
2022-08-26T07:15:31.382Z,1447.00
2022-08-26T07:16:29.587Z,1366.00
2022-08-26T07:17:29.853Z,1329.00
2022-08-26T07:18:30.105Z,1251.00
2022-08-26T07:19:31.720Z,1158.00
2022-08-26T07:20:30.659Z,1165.00
2022-08-26T07:21:30.903Z,1192.00
2022-08-26T07:22:31.558Z,1156.00
2022-08-26T07:23:31.458Z,1045.00
2022-08-26T07:24:32.178Z,1058.00
2022-08-26T07:25:32.115Z,1083.00
2022-08-26T07:26:32.380Z,1085.00
2022-08-26T07:27:32.653Z,1091.00
2022-08-26T07:28:32.879Z,1618.00
2022-08-26T07:29:33.301Z,1170.00
2022-08-26T07:30:33.503Z,1391.00
2022-08-26T07:31:39.437Z,1680.00
2022-08-26T07:32:35.017Z,1341.00
2022-08-26T07:33:34.259Z,1736.00
2022-08-26T07:34:34.590Z,1714.00
2022-08-26T07:35:34.865Z,1660.00
2022-08-26T07:36:35.127Z,1692.00
2022-08-26T07:37:35.540Z,1712.00
2022-08-26T07:38:35.587Z,1892.00
2022-08-26T07:39:35.949Z,1751.00
2022-08-26T07:40:36.310Z,1722.00
2022-08-26T07:41:36.543Z,1730.00
2022-08-26T07:42:36.865Z,1753.00
2022-08-26T07:43:37.081Z,1782.00
2022-08-26T07:44:37.585Z,1842.00
2022-08-26T07:45:37.758Z,1838.00
2022-08-26T07:46:38.030Z,1864.00
2022-08-26T07:47:38.339Z,1723.00
2022-08-26T07:48:38.601Z,1976.00
2022-08-26T07:49:38.894Z,1722.00
2022-08-26T07:50:50.219Z,1878.00
2022-08-26T07:51:40.394Z,1811.00
2022-08-26T07:52:39.623Z,1795.00
2022-08-26T07:53:39.888Z,1606.00
2022-08-26T07:54:40.152Z,1900.00
2022-08-26T07:55:40.479Z,1942.00
2022-08-26T07:56:41.316Z,1887.00
2022-08-26T07:57:41.046Z,1857.00
2022-08-26T07:58:41.324Z,1864.00
2022-08-26T07:59:41.588Z,1931.00
2022-08-26T08:00:41.855Z,1987.00
2022-08-26T08:01:45.035Z,2056.00
2022-08-26T08:02:42.331Z,2155.00
2022-08-26T08:03:42.569Z,1948.00
2022-08-26T08:04:42.844Z,2073.00
2022-08-26T08:05:43.062Z,2442.00
2022-08-26T08:06:43.864Z,2397.00
2022-08-26T08:07:44.862Z,2702.00
2022-08-26T08:08:43.884Z,2334.00
2022-08-26T08:09:44.121Z,2770.00
2022-08-26T08:10:44.425Z,2269.00
2022-08-26T08:11:44.775Z,2207.00
2022-08-26T08:12:45.073Z,2430.00
2022-08-26T08:13:45.321Z,2839.00
2022-08-26T08:14:45.567Z,3166.00
2022-08-26T08:15:45.827Z,2835.00
2022-08-26T08:16:46.949Z,2975.00
2022-08-26T08:17:46.422Z,3034.00
2022-08-26T08:18:46.741Z,3236.00
2022-08-26T08:19:47.049Z,3378.00
2022-08-26T08:20:59.223Z,3333.00
2022-08-26T08:21:48.552Z,3474.00
2022-08-26T08:22:47.792Z,3384.00
2022-08-26T08:23:48.046Z,4116.00
2022-08-26T08:24:49.895Z,3156.00
2022-08-26T08:25:48.713Z,2680.00
2022-08-26T08:26:49.008Z,2502.00
2022-08-26T08:27:49.182Z,2500.00
2022-08-26T08:28:49.558Z,2472.00
2022-08-26T08:29:49.737Z,2495.00
2022-08-26T08:30:50.058Z,2542.00
2022-08-26T08:31:56.535Z,2556.00
2022-08-26T08:32:51.624Z,2416.00
2022-08-26T08:33:50.909Z,2018.00
2022-08-26T08:34:51.208Z,3277.00
2022-08-26T08:35:51.403Z,3034.00
2022-08-26T08:36:53.482Z,3957.00
2022-08-26T08:37:51.964Z,1779.00
2022-08-26T08:38:52.250Z,3438.00
2022-08-26T08:39:52.558Z,3620.00
2022-08-26T08:40:52.770Z,2941.00
2022-08-26T08:41:53.048Z,2694.00
2022-08-26T08:43:53.558Z,2995.00
2022-08-26T08:44:53.827Z,2843.00
2022-08-26T08:45:54.102Z,2518.00
2022-08-26T08:46:54.395Z,2235.00
2022-08-26T08:47:54.863Z,3206.00
2022-08-26T08:48:54.945Z,3634.00
2022-08-26T08:49:55.211Z,3630.00
2022-08-26T08:50:55.596Z,3819.00
2022-08-26T08:51:56.000Z,3176.00
2022-08-26T08:52:56.120Z,2952.00
2022-08-26T08:53:56.695Z,3146.00
2022-08-26T08:54:56.720Z,3166.00
2022-08-26T08:55:56.908Z,3448.00
2022-08-26T08:56:57.158Z,3398.00
2022-08-26T08:58:07.943Z,3045.00
2022-08-26T08:58:58.752Z,4343.00
2022-08-26T08:59:58.058Z,5861.00
2022-08-26T09:00:58.426Z,3412.00
2022-08-26T09:01:58.741Z,1816.00
2022-08-26T09:02:59.039Z,6547.00
2022-08-26T09:03:59.272Z,3115.00
2022-08-26T09:04:59.514Z,2963.00
2022-08-26T09:05:59.767Z,2802.00
2022-08-26T09:07:00.060Z,2720.00
2022-08-26T09:08:00.301Z,2579.00
2022-08-26T09:09:00.562Z,2628.00
2022-08-26T09:10:00.848Z,2702.00
2022-08-26T09:11:01.075Z,2718.00
2022-08-26T09:12:01.812Z,2715.00
2022-08-26T09:13:02.603Z,2702.00
2022-08-26T09:14:01.893Z,2690.00
2022-08-26T09:15:02.190Z,2721.00
2022-08-26T09:16:02.370Z,2867.00
2022-08-26T09:17:02.681Z,2927.00
2022-08-26T09:18:04.563Z,3024.00
2022-08-26T09:19:03.083Z,3039.00
2022-08-26T09:20:03.454Z,3126.00
2022-08-26T09:21:03.744Z,3165.00
2022-08-26T09:22:08.653Z,3147.00
2022-08-26T09:23:05.389Z,3130.00
2022-08-26T09:24:04.566Z,3154.00
2022-08-26T09:25:04.798Z,3038.00
2022-08-26T09:26:05.190Z,3044.00
2022-08-26T09:27:05.655Z,3021.00
2022-08-26T09:28:05.729Z,3137.00
2022-08-26T09:29:06.007Z,3260.00
2022-08-26T09:30:06.275Z,3195.00
2022-08-26T09:31:10.662Z,3342.00
2022-08-26T09:32:07.279Z,3205.00
2022-08-26T09:33:10.368Z,3292.00
2022-08-26T09:34:07.343Z,3296.00
2022-08-26T09:35:07.590Z,2868.00
2022-08-26T09:36:07.807Z,4577.00
2022-08-26T09:37:08.139Z,4322.00
2022-08-26T09:38:11.697Z,4061.00
2022-08-26T09:39:08.677Z,3771.00
2022-08-26T09:40:09.023Z,3803.00
2022-08-26T09:41:09.216Z,4172.00
2022-08-26T09:42:09.704Z,3969.00
2022-08-26T09:43:09.766Z,3879.00
2022-08-26T09:44:14.470Z,3725.00
2022-08-26T09:45:10.434Z,3725.00
2022-08-26T09:46:10.702Z,3710.00
2022-08-26T09:47:10.965Z,3674.00
2022-08-26T09:48:11.293Z,3619.00
2022-08-26T09:49:12.450Z,3742.00
2022-08-26T09:50:12.465Z,3692.00
2022-08-26T09:51:12.036Z,3816.00
2022-08-26T09:52:12.317Z,3908.00
2022-08-26T09:53:13.116Z,4083.00
2022-08-26T09:54:12.846Z,4121.00
2022-08-26T09:55:14.103Z,4160.00
2022-08-26T09:56:13.460Z,4064.00
2022-08-26T09:57:13.722Z,4034.00
2022-08-26T09:58:13.968Z,4163.00
2022-08-26T09:59:14.321Z,4275.00
2022-08-26T10:00:14.615Z,4530.00
2022-08-26T10:01:14.844Z,4371.00
2022-08-26T10:02:15.035Z,5090.00
2022-08-26T10:03:15.686Z,5022.00
2022-08-26T10:04:15.686Z,5100.00
2022-08-26T10:05:15.893Z,6982.00
2022-08-26T10:06:16.132Z,5761.00
2022-08-26T10:07:16.424Z,2813.00
2022-08-26T10:08:16.653Z,17100.00
2022-08-26T10:09:16.923Z,9112.00
2022-08-26T10:10:17.224Z,4274.00
2022-08-26T10:11:17.498Z,16356.00
2022-08-26T10:12:17.828Z,19221.00
2022-08-26T10:13:19.625Z,20763.00
2022-08-26T10:14:18.538Z,18867.00
2022-08-26T10:15:18.781Z,20651.00
2022-08-26T10:16:19.212Z,23775.00
2022-08-26T10:17:19.332Z,24856.00
2022-08-26T10:18:19.565Z,23376.00
2022-08-26T10:19:19.838Z,21650.00
2022-08-26T10:20:23.152Z,73159.00
2022-08-26T10:21:20.360Z,23845.00
2022-08-26T10:22:20.651Z,21556.00
2022-08-26T10:23:20.847Z,20155.00
2022-08-26T10:24:22.033Z,19485.00
2022-08-26T10:25:21.486Z,20005.00
2022-08-26T10:26:21.743Z,19934.00
2022-08-26T10:27:22.106Z,20623.00
2022-08-26T10:28:22.360Z,20751.00
2022-08-26T10:29:22.596Z,19696.00
2022-08-26T10:30:22.860Z,15288.00
2022-08-26T10:31:23.161Z,9829.00
2022-08-26T10:32:23.442Z,11593.00
2022-08-26T10:33:23.826Z,7625.00
2022-08-26T10:34:24.083Z,19027.00
2022-08-26T10:35:24.309Z,18675.00
2022-08-26T10:36:24.717Z,20609.00
2022-08-26T10:37:24.887Z,20450.00
2022-08-26T10:38:25.152Z,19870.00
2022-08-26T10:39:25.430Z,20080.00
2022-08-26T10:40:25.766Z,17781.00
2022-08-26T10:41:26.056Z,19542.00
2022-08-26T10:42:26.282Z,18440.00
2022-08-26T10:43:26.649Z,18765.00
2022-08-26T10:44:26.870Z,19768.00
2022-08-26T10:45:27.320Z,20950.00
2022-08-26T10:46:27.670Z,20655.00
2022-08-26T10:47:27.769Z,20726.00
2022-08-26T10:48:35.640Z,20507.00
2022-08-26T10:49:29.392Z,22692.00
2022-08-26T10:50:28.670Z,21059.00
2022-08-26T10:51:28.923Z,21034.00
2022-08-26T10:52:29.537Z,20595.00
2022-08-26T10:53:29.519Z,19757.00
2022-08-26T10:54:29.828Z,23696.00
2022-08-26T10:55:30.084Z,24422.00
2022-08-26T10:56:31.362Z,21193.00
2022-08-26T10:57:30.691Z,19052.00
2022-08-26T10:58:31.075Z,75440.00
2022-08-26T10:59:31.336Z,75011.00
2022-08-26T11:00:31.565Z,21432.00
2022-08-26T11:01:31.894Z,74591.00
2022-08-26T11:02:32.122Z,74189.00
2022-08-26T11:03:32.408Z,73922.00
2022-08-26T11:04:34.955Z,21912.00
2022-08-26T11:05:32.926Z,74086.00
2022-08-26T11:06:33.269Z,74817.00
2022-08-26T11:07:33.519Z,75067.00
2022-08-26T11:08:33.766Z,74460.00
2022-08-26T11:09:34.071Z,75137.00
2022-08-26T11:10:34.351Z,74598.00
2022-08-26T11:11:34.634Z,73901.00
2022-08-26T11:12:34.889Z,73922.00
2022-08-26T11:13:38.722Z,75262.00
2022-08-26T11:14:46.181Z,74619.00
2022-08-26T11:15:36.813Z,72193.00
2022-08-26T11:16:36.192Z,26383.00
2022-08-26T11:17:37.414Z,30459.00
2022-08-26T11:18:36.686Z,24062.00
2022-08-26T11:19:59.549Z,75746.00
2022-08-26T11:20:39.323Z,74754.00
2022-08-26T11:21:37.514Z,74293.00
2022-08-26T11:22:37.801Z,74696.00
2022-08-26T11:23:39.073Z,73809.00
2022-08-26T11:24:38.371Z,74133.00
2022-08-26T11:25:38.685Z,75502.00
2022-08-26T11:26:55.374Z,75901.00
2022-08-26T11:27:40.262Z,76293.00
2022-08-26T11:28:39.593Z,76538.00
2022-08-26T11:29:39.818Z,77444.00
2022-08-26T11:30:40.139Z,76559.00
2022-08-26T11:31:40.704Z,74567.00
2022-08-26T11:32:40.668Z,75347.00
2022-08-26T11:33:40.929Z,76917.00
2022-08-26T11:34:41.180Z,76629.00
2022-08-26T11:35:41.568Z,76762.00
2022-08-26T11:36:41.793Z,75897.00
2022-08-26T11:37:42.156Z,73594.00
2022-08-26T11:38:42.429Z,74144.00
2022-08-26T11:39:46.265Z,76697.00
2022-08-26T11:40:43.036Z,77801.00
2022-08-26T11:41:43.258Z,77640.00
2022-08-26T11:42:43.591Z,77666.00
2022-08-26T11:43:43.809Z,77625.00
2022-08-26T11:44:49.208Z,77885.00
2022-08-26T11:45:45.424Z,79145.00
2022-08-26T11:46:44.607Z,80769.00
2022-08-26T11:47:44.856Z,79531.00
2022-08-26T11:48:45.188Z,78207.00
2022-08-26T11:49:45.376Z,79008.00
2022-08-26T11:50:46.070Z,78084.00
2022-08-26T11:51:48.280Z,79943.00
2022-08-26T11:52:46.217Z,79617.00
2022-08-26T11:53:47.180Z,76990.00
2022-08-26T11:54:46.725Z,78588.00
2022-08-26T11:55:47.234Z,79946.00
2022-08-26T11:56:47.314Z,77269.00
2022-08-26T11:57:47.562Z,75403.00
2022-08-26T11:58:47.833Z,77873.00
2022-08-26T11:59:49.045Z,79225.00
2022-08-26T12:00:48.460Z,78999.00
2022-08-26T12:01:48.723Z,77428.00
2022-08-26T12:02:49.104Z,72603.00
2022-08-26T12:03:49.427Z,25331.00
2022-08-26T12:04:49.786Z,18842.00
2022-08-26T12:05:49.927Z,77727.00
2022-08-26T12:06:50.286Z,76520.00
2022-08-26T12:07:50.558Z,12969.00
2022-08-26T12:08:50.834Z,78571.00
2022-08-26T12:09:51.079Z,30733.00
2022-08-26T12:10:51.368Z,7524.00
2022-08-26T12:11:51.577Z,13630.00
2022-08-26T12:12:51.895Z,4883.00
2022-08-26T12:13:52.089Z,22044.00
2022-08-26T12:14:52.310Z,75582.00
2022-08-26T12:15:52.602Z,74738.00
2022-08-26T12:16:52.951Z,76313.00
2022-08-26T12:17:54.529Z,76335.00
2022-08-26T12:18:53.503Z,75024.00
2022-08-26T12:19:53.699Z,78121.00
2022-08-26T12:20:53.972Z,80175.00
2022-08-26T12:21:54.229Z,74069.00
2022-08-26T12:22:54.503Z,21411.00
2022-08-26T12:23:54.729Z,3536.00
2022-08-26T12:24:55.015Z,10305.00
2022-08-26T12:25:55.274Z,24053.00
2022-08-26T12:26:55.587Z,21919.00
2022-08-26T12:27:55.948Z,12845.00
2022-08-26T12:28:56.149Z,6541.00
2022-08-26T12:29:56.482Z,6312.00
2022-08-26T12:30:56.729Z,5918.00
2022-08-26T12:31:57.086Z,6261.00
2022-08-26T12:32:57.871Z,5420.00
2022-08-26T12:33:59.087Z,5779.00
2022-08-26T12:34:57.996Z,5689.00
2022-08-26T12:35:58.270Z,5743.00
2022-08-26T12:37:58.849Z,6046.00